Time;durP1;ratioP1;P1;durP2;ratioP2;P2;SDS_P1;SDS_P2;PMS_P1;PMS_P2;Temp;Humidity;BMP_temperature;BMP_pressure;BME280_temperature;BME280_humidity;BME280_pressure;Samples;Min_cycle;Max_cycle;Signal;HPM_P1;HPM_P2
2023/08/06 00:02:02;;;;;;;2.70;1.70;;;;;;;;;;6247970;22;20004;-80
2023/08/06 00:04:28;;;;;;;3.78;1.80;;;;;;;;;;6222799;22;20033;-81
2023/08/06 00:06:53;;;;;;;2.28;1.60;;;;;;;;;;6274847;22;20000;-80
2023/08/06 00:09:19;;;;;;;4.13;1.83;;;;;;;;;;6282834;22;20011;-81
2023/08/06 00:11:46;;;;;;;5.28;1.77;;;;;;;;;;6274837;22;20007;-81
2023/08/06 00:14:12;;;;;;;6.07;2.15;;;;;;;;;;6274410;22;20003;-81
2023/08/06 00:16:37;;;;;;;6.68;1.95;;;;;;;;;;6247838;22;20008;-81
2023/08/06 00:19:03;;;;;;;4.68;2.00;;;;;;;;;;6275006;22;20000;-81
2023/08/06 00:21:28;;;;;;;6.38;2.55;;;;;;;;;;6247964;22;20383;-80
2023/08/06 00:23:53;;;;;;;5.07;2.47;;;;;;;;;;6274735;22;20000;-80
2023/08/06 00:26:19;;;;;;;4.95;2.10;;;;;;;;;;6275031;22;20007;-79
2023/08/06 00:28:45;;;;;;;5.78;2.20;;;;;;;;;;6222299;22;20320;-80
2023/08/06 00:31:10;;;;;;;4.22;2.15;;;;;;;;;;6275329;22;20003;-81
2023/08/06 00:33:35;;;;;;;4.55;2.15;;;;;;;;;;6277744;22;20358;-81
2023/08/06 00:36:01;;;;;;;2.90;2.00;;;;;;;;;;6274144;22;20014;-80
2023/08/06 00:38:26;;;;;;;2.40;1.80;;;;;;;;;;6247974;22;19996;-81
2023/08/06 00:40:53;;;;;;;4.15;2.40;;;;;;;;;;6248108;22;20007;-80
2023/08/06 00:43:18;;;;;;;3.55;1.80;;;;;;;;;;6222654;22;20003;-81
2023/08/06 00:45:44;;;;;;;5.60;2.22;;;;;;;;;;6274856;22;20484;-79
2023/08/06 00:48:09;;;;;;;7.90;2.22;;;;;;;;;;6251310;22;20438;-80
2023/08/06 00:50:34;;;;;;;6.32;2.13;;;;;;;;;;6233083;22;20011;-80
2023/08/06 00:53:00;;;;;;;8.02;2.38;;;;;;;;;;6250369;22;19996;-80
2023/08/06 00:55:25;;;;;;;2.22;2.03;;;;;;;;;;6234684;22;20004;-81
2023/08/06 00:57:52;;;;;;;3.95;2.42;;;;;;;;;;6199877;22;20442;-80
2023/08/06 01:00:18;;;;;;;5.82;2.13;;;;;;;;;;6249906;22;20435;-81
2023/08/06 01:02:44;;;;;;;8.38;3.17;;;;;;;;;;6224428;22;19999;-81
2023/08/06 01:05:09;;;;;;;6.30;2.55;;;;;;;;;;6276436;22;20062;-82
2023/08/06 01:07:43;;;;;;;5.10;2.55;;;;;;;;;;6276134;22;20041;-81
2023/08/06 01:10:23;;;;;;;4.75;2.30;;;;;;;;;;6249663;22;20004;-81
2023/08/06 01:12:55;;;;;;;5.53;2.55;;;;;;;;;;6224014;22;20058;-81
2023/08/06 01:15:27;;;;;;;4.90;2.22;;;;;;;;;;6224783;22;20399;-81
2023/08/06 01:17:52;;;;;;;4.30;2.25;;;;;;;;;;6228689;22;20051;-81
2023/08/06 01:20:17;;;;;;;5.53;2.30;;;;;;;;;;6253279;22;20007;-82
2023/08/06 01:22:43;;;;;;;3.55;2.33;;;;;;;;;;6276695;22;19995;-82
2023/08/06 01:25:09;;;;;;;2.85;2.20;;;;;;;;;;6249446;22;20449;-82
2023/08/06 01:27:47;;;;;;;5.53;2.22;;;;;;;;;;6224175;22;20004;-82
2023/08/06 01:30:16;;;;;;;5.93;2.38;;;;;;;;;;6276602;22;20099;-82
2023/08/06 01:32:44;;;;;;;2.95;2.10;;;;;;;;;;6250075;22;20000;-82
2023/08/06 01:35:09;;;;;;;3.13;2.13;;;;;;;;;;6249970;22;20008;-82
2023/08/06 01:37:35;;;;;;;5.45;2.17;;;;;;;;;;6224214;22;20061;-81
2023/08/06 01:40:00;;;;;;;3.42;2.13;;;;;;;;;;6249670;22;20439;-81
2023/08/06 01:42:26;;;;;;;2.72;1.88;;;;;;;;;;6277686;22;20075;-82
2023/08/06 01:44:51;;;;;;;4.40;2.00;;;;;;;;;;6225116;22;20003;-82
2023/08/06 01:47:16;;;;;;;7.95;2.20;;;;;;;;;;6276460;22;20006;-82
2023/08/06 01:49:42;;;;;;;4.82;1.75;;;;;;;;;;6199096;22;20374;-82
2023/08/06 01:52:07;;;;;;;3.35;1.95;;;;;;;;;;6248996;22;20010;-81
2023/08/06 01:54:33;;;;;;;2.13;1.73;;;;;;;;;;6223679;22;20327;-81
2023/08/06 01:56:58;;;;;;;4.10;1.58;;;;;;;;;;6223592;22;20003;-81
2023/08/06 01:59:24;;;;;;;4.00;1.90;;;;;;;;;;6276335;22;20011;-81
2023/08/06 02:01:49;;;;;;;2.42;1.88;;;;;;;;;;6199333;22;20014;-81
2023/08/06 02:04:15;;;;;;;3.33;1.77;;;;;;;;;;6276381;22;20114;-81
2023/08/06 02:06:40;;;;;;;3.65;1.88;;;;;;;;;;6258755;22;20011;-81
2023/08/06 02:09:06;;;;;;;4.07;1.60;;;;;;;;;;6275458;22;20389;-80
2023/08/06 02:11:31;;;;;;;7.13;1.73;;;;;;;;;;6276163;22;20039;-81
2023/08/06 02:13:57;;;;;;;3.13;1.92;;;;;;;;;;6249443;22;20003;-82
2023/08/06 02:16:22;;;;;;;2.30;1.90;;;;;;;;;;6276004;22;20011;-81
2023/08/06 02:18:47;;;;;;;4.03;1.90;;;;;;;;;;6275982;22;20000;-81
2023/08/06 02:21:13;;;;;;;6.20;1.67;;;;;;;;;;6276274;22;20008;-81
2023/08/06 02:23:38;;;;;;;4.55;2.05;;;;;;;;;;6275315;22;20407;-80
2023/08/06 02:26:04;;;;;;;2.63;1.90;;;;;;;;;;6275888;22;20003;-82
2023/08/06 02:28:30;;;;;;;4.30;2.28;;;;;;;;;;6279373;22;20006;-82
2023/08/06 02:30:56;;;;;;;3.47;1.73;;;;;;;;;;6276128;22;20031;-81
2023/08/06 02:33:21;;;;;;;4.57;1.85;;;;;;;;;;6275967;22;20387;-80
2023/08/06 02:35:46;;;;;;;3.17;1.60;;;;;;;;;;6248482;22;19999;-81
2023/08/06 02:38:12;;;;;;;3.05;1.77;;;;;;;;;;6248141;22;20423;-80
2023/08/06 02:40:45;;;;;;;4.03;1.67;;;;;;;;;;6275563;22;20000;-82
2023/08/06 02:43:11;;;;;;;3.53;2.00;;;;;;;;;;6249286;22;20086;-82
2023/08/06 02:45:36;;;;;;;1.85;1.40;;;;;;;;;;6248455;22;20355;-81
2023/08/06 02:48:02;;;;;;;7.00;1.70;;;;;;;;;;6248633;22;20082;-81
2023/08/06 02:50:28;;;;;;;4.35;1.63;;;;;;;;;;6254026;22;20003;-81
2023/08/06 02:52:53;;;;;;;4.15;1.58;;;;;;;;;;6284063;22;19999;-82
2023/08/06 02:55:19;;;;;;;2.28;1.75;;;;;;;;;;6275939;22;20041;-81
2023/08/06 02:57:44;;;;;;;1.63;1.30;;;;;;;;;;6248783;22;20000;-81
2023/08/06 03:00:11;;;;;;;2.28;1.60;;;;;;;;;;6248704;22;20517;-81
2023/08/06 03:02:37;;;;;;;2.58;1.58;;;;;;;;;;6248591;22;20340;-81
2023/08/06 03:05:03;;;;;;;2.72;1.80;;;;;;;;;;6248636;22;20090;-82
2023/08/06 03:07:29;;;;;;;1.80;1.60;;;;;;;;;;6275307;22;20004;-80
2023/08/06 03:09:54;;;;;;;4.57;1.65;;;;;;;;;;6275480;22;20500;-82
2023/08/06 03:12:20;;;;;;;2.50;1.40;;;;;;;;;;6248236;22;20023;-81
2023/08/06 03:14:45;;;;;;;3.28;1.70;;;;;;;;;;6248988;22;20008;-81
2023/08/06 03:17:11;;;;;;;3.40;1.73;;;;;;;;;;6275135;22;20000;-82
2023/08/06 03:19:36;;;;;;;3.63;1.70;;;;;;;;;;6275417;22;20034;-81
2023/08/06 03:22:01;;;;;;;5.72;1.70;;;;;;;;;;6248011;22;19999;-81
2023/08/06 03:24:27;;;;;;;4.47;1.88;;;;;;;;;;6275001;22;20011;-81
2023/08/06 03:26:52;;;;;;;2.38;2.08;;;;;;;;;;6222770;22;19995;-81
2023/08/06 03:29:18;;;;;;;6.13;2.00;;;;;;;;;;6222998;22;20008;-81
2023/08/06 03:31:44;;;;;;;2.20;2.00;;;;;;;;;;6275358;22;20022;-81
2023/08/06 03:34:09;;;;;;;2.40;1.90;;;;;;;;;;6248875;22;20065;-80
2023/08/06 03:36:34;;;;;;;6.40;2.40;;;;;;;;;;6285312;22;20098;-80
2023/08/06 03:39:00;;;;;;;4.10;2.20;;;;;;;;;;6223278;22;20004;-80
2023/08/06 03:41:25;;;;;;;3.97;1.98;;;;;;;;;;6248264;22;20000;-81
2023/08/06 03:43:51;;;;;;;2.28;2.08;;;;;;;;;;6275384;22;20004;-81
2023/08/06 03:46:16;;;;;;;3.08;2.30;;;;;;;;;;6275348;22;20094;-81
2023/08/06 03:48:42;;;;;;;2.85;2.38;;;;;;;;;;6223117;22;20533;-81
2023/08/06 03:51:07;;;;;;;4.22;2.60;;;;;;;;;;6274789;22;20438;-81
2023/08/06 03:53:33;;;;;;;5.28;2.50;;;;;;;;;;6275153;22;20307;-81
2023/08/06 03:55:59;;;;;;;3.10;2.60;;;;;;;;;;6275481;22;20040;-81
2023/08/06 03:58:25;;;;;;;4.28;2.58;;;;;;;;;;6279399;22;20077;-81
2023/08/06 04:01:00;;;;;;;3.42;2.70;;;;;;;;;;6200035;22;20343;-81
2023/08/06 04:03:26;;;;;;;5.50;2.60;;;;;;;;;;6276107;22;20010;-81
2023/08/06 04:05:52;;;;;;;2.78;2.50;;;;;;;;;;6276385;22;20056;-81
2023/08/06 04:08:17;;;;;;;4.05;2.95;;;;;;;;;;6251090;22;20427;-81
2023/08/06 04:10:43;;;;;;;6.15;2.50;;;;;;;;;;6286099;22;20004;-82
2023/08/06 04:13:08;;;;;;;3.15;2.50;;;;;;;;;;6245651;22;20006;-80
2023/08/06 04:15:34;;;;;;;4.03;2.75;;;;;;;;;;6295554;22;20023;-81
2023/08/06 04:18:00;;;;;;;3.22;2.70;;;;;;;;;;6240592;22;20038;-80
2023/08/06 04:20:25;;;;;;;3.35;2.58;;;;;;;;;;6252528;22;20082;-81
2023/08/06 04:22:53;;;;;;;3.72;2.72;;;;;;;;;;6278498;22;20000;-81
2023/08/06 04:25:20;;;;;;;4.72;2.72;;;;;;;;;;6223904;22;20439;-82
2023/08/06 04:27:47;;;;;;;3.92;2.75;;;;;;;;;;6276725;22;20086;-80
2023/08/06 04:30:12;;;;;;;5.65;2.42;;;;;;;;;;6249952;22;20426;-83
2023/08/06 04:32:39;;;;;;;3.22;2.70;;;;;;;;;;6224839;22;20064;-81
2023/08/06 04:35:05;;;;;;;7.13;2.88;;;;;;;;;;6276456;22;20011;-81
2023/08/06 04:37:30;;;;;;;7.57;3.00;;;;;;;;;;6249677;22;20004;-81
2023/08/06 04:39:55;;;;;;;6.45;3.13;;;;;;;;;;6250318;22;20015;-82
2023/08/06 04:42:21;;;;;;;5.95;3.05;;;;;;;;;;6250077;22;20415;-83
2023/08/06 04:44:46;;;;;;;7.40;3.17;;;;;;;;;;6252199;22;20003;-82
2023/08/06 04:47:12;;;;;;;11.93;3.47;;;;;;;;;;6226563;22;20008;-81
2023/08/06 04:49:37;;;;;;;4.68;3.17;;;;;;;;;;6249703;22;19999;-83
2023/08/06 04:52:03;;;;;;;7.20;3.33;;;;;;;;;;6249737;22;20012;-81
2023/08/06 04:54:28;;;;;;;5.88;2.88;;;;;;;;;;6249450;22;20026;-81
2023/08/06 04:56:53;;;;;;;4.30;3.20;;;;;;;;;;6249365;22;20018;-82
2023/08/06 04:59:19;;;;;;;11.63;3.33;;;;;;;;;;6249709;22;20004;-82
2023/08/06 05:01:44;;;;;;;6.70;3.33;;;;;;;;;;6224450;22;20053;-82
2023/08/06 05:04:10;;;;;;;6.45;3.13;;;;;;;;;;6276039;22;20019;-82
2023/08/06 05:06:38;;;;;;;4.63;3.05;;;;;;;;;;6249604;22;20060;-83
2023/08/06 05:09:03;;;;;;;6.35;3.65;;;;;;;;;;6257719;22;20053;-81
2023/08/06 05:11:28;;;;;;;4.75;3.58;;;;;;;;;;6249510;22;20003;-82
2023/08/06 05:13:54;;;;;;;5.07;3.33;;;;;;;;;;6223922;22;20346;-81
2023/08/06 05:16:19;;;;;;;4.22;3.40;;;;;;;;;;6276751;22;20377;-82
2023/08/06 05:18:45;;;;;;;8.00;3.17;;;;;;;;;;6249179;22;20094;-82
2023/08/06 05:21:10;;;;;;;5.20;3.10;;;;;;;;;;6276563;22;20007;-83
2023/08/06 05:23:36;;;;;;;4.35;3.30;;;;;;;;;;6276041;22;20007;-82
2023/08/06 05:26:01;;;;;;;5.63;3.35;;;;;;;;;;6249375;22;20049;-82
2023/08/06 05:28:27;;;;;;;8.00;3.05;;;;;;;;;;6276438;22;20000;-83
2023/08/06 05:30:52;;;;;;;4.15;2.92;;;;;;;;;;6276480;22;20003;-82
2023/08/06 05:33:18;;;;;;;4.07;2.65;;;;;;;;;;6277772;22;19995;-83
2023/08/06 05:35:43;;;;;;;5.43;2.60;;;;;;;;;;6276355;22;20004;-81
2023/08/06 05:38:09;;;;;;;5.03;2.45;;;;;;;;;;6248798;22;20003;-82
2023/08/06 05:40:34;;;;;;;3.08;2.22;;;;;;;;;;6276274;22;20027;-82
2023/08/06 05:43:00;;;;;;;7.22;2.47;;;;;;;;;;6223510;22;20408;-81
2023/08/06 05:45:25;;;;;;;4.18;2.50;;;;;;;;;;6276220;22;20022;-82
2023/08/06 05:47:51;;;;;;;3.80;2.60;;;;;;;;;;6248737;22;20346;-82
2023/08/06 05:50:16;;;;;;;5.00;2.40;;;;;;;;;;6248861;22;20419;-81
2023/08/06 05:52:42;;;;;;;3.85;2.53;;;;;;;;;;6223619;22;20016;-81
2023/08/06 05:55:07;;;;;;;6.70;2.28;;;;;;;;;;6276736;22;20000;-81
2023/08/06 05:57:33;;;;;;;4.85;2.33;;;;;;;;;;6248794;22;20336;-81
2023/08/06 05:59:58;;;;;;;4.97;2.40;;;;;;;;;;6275926;22;20003;-81
2023/08/06 06:02:24;;;;;;;8.00;2.47;;;;;;;;;;6275451;22;20010;-81
2023/08/06 06:04:49;;;;;;;3.10;2.50;;;;;;;;;;6275725;22;20011;-82
2023/08/06 06:07:14;;;;;;;4.65;2.50;;;;;;;;;;6276196;22;20011;-82
2023/08/06 06:09:40;;;;;;;4.85;2.30;;;;;;;;;;6276418;22;20003;-82
2023/08/06 06:12:06;;;;;;;3.25;2.38;;;;;;;;;;6276085;22;20439;-82
2023/08/06 06:14:31;;;;;;;2.42;2.20;;;;;;;;;;6223623;22;20331;-81
2023/08/06 06:16:57;;;;;;;6.45;2.20;;;;;;;;;;6275208;22;20008;-82
2023/08/06 06:19:22;;;;;;;3.85;2.10;;;;;;;;;;6256759;22;20004;-80
2023/08/06 06:21:48;;;;;;;2.58;1.90;;;;;;;;;;6275841;22;19999;-82
2023/08/06 06:24:13;;;;;;;3.67;2.05;;;;;;;;;;6249084;22;20415;-81
2023/08/06 06:26:39;;;;;;;4.43;1.85;;;;;;;;;;6248901;22;20346;-81
2023/08/06 06:29:04;;;;;;;4.32;1.85;;;;;;;;;;6276109;22;20003;-81
2023/08/06 06:31:30;;;;;;;3.95;1.38;;;;;;;;;;6248395;22;20083;-81
2023/08/06 06:33:55;;;;;;;2.67;1.70;;;;;;;;;;6223170;22;20004;-80
2023/08/06 06:36:20;;;;;;;2.25;1.80;;;;;;;;;;6275339;22;20065;-80
2023/08/06 06:38:46;;;;;;;2.38;1.60;;;;;;;;;;6248404;22;20000;-81
2023/08/06 06:41:12;;;;;;;1.55;1.45;;;;;;;;;;6276946;22;20004;-81
2023/08/06 06:43:40;;;;;;;4.32;1.70;;;;;;;;;;6249928;22;20492;-80
2023/08/06 06:46:06;;;;;;;3.75;1.70;;;;;;;;;;6275553;22;20035;-81
2023/08/06 06:48:32;;;;;;;3.25;1.55;;;;;;;;;;6198807;22;20008;-82
2023/08/06 06:50:58;;;;;;;3.40;1.52;;;;;;;;;;6275879;22;20011;-81
2023/08/06 06:53:27;;;;;;;2.05;1.58;;;;;;;;;;6275160;22;20008;-80
2023/08/06 06:55:56;;;;;;;2.95;1.33;;;;;;;;;;6247981;22;20419;-81
2023/08/06 06:58:21;;;;;;;4.35;1.45;;;;;;;;;;6275552;22;20016;-81
2023/08/06 07:00:48;;;;;;;2.47;1.52;;;;;;;;;;6275275;22;20000;-81
2023/08/06 07:03:14;;;;;;;6.15;1.30;;;;;;;;;;6276165;22;20004;-81
2023/08/06 07:05:40;;;;;;;3.08;1.60;;;;;;;;;;6255555;22;20327;-82
2023/08/06 07:08:05;;;;;;;2.88;1.40;;;;;;;;;;6274986;22;20064;-83
2023/08/06 07:10:34;;;;;;;2.08;1.50;;;;;;;;;;6275264;22;20081;-81
2023/08/06 07:13:00;;;;;;;3.40;1.38;;;;;;;;;;6223131;22;20002;-82
2023/08/06 07:15:25;;;;;;;1.52;1.40;;;;;;;;;;6274801;22;20027;-82
2023/08/06 07:17:51;;;;;;;3.42;1.33;;;;;;;;;;6275042;22;20004;-82
2023/08/06 07:20:16;;;;;;;3.70;1.40;;;;;;;;;;6275288;22;20050;-81
2023/08/06 07:22:42;;;;;;;3.22;1.60;;;;;;;;;;6248098;22;20054;-80
2023/08/06 07:25:07;;;;;;;1.70;1.60;;;;;;;;;;6274926;22;20479;-82
2023/08/06 07:27:33;;;;;;;1.55;1.45;;;;;;;;;;6253576;22;20007;-81
2023/08/06 07:29:59;;;;;;;4.60;1.67;;;;;;;;;;6280215;22;19999;-81
2023/08/06 07:32:24;;;;;;;3.83;1.52;;;;;;;;;;6223449;22;20014;-81
2023/08/06 07:34:50;;;;;;;4.00;1.70;;;;;;;;;;6275313;22;20058;-82
2023/08/06 07:37:15;;;;;;;2.17;1.45;;;;;;;;;;6248161;22;20003;-81
2023/08/06 07:39:42;;;;;;;2.90;1.63;;;;;;;;;;6275427;22;20010;-82
2023/08/06 07:42:07;;;;;;;3.08;1.70;;;;;;;;;;6274965;22;20007;-81
2023/08/06 07:44:33;;;;;;;2.80;2.05;;;;;;;;;;6275203;22;20506;-81
2023/08/06 07:46:58;;;;;;;4.32;1.98;;;;;;;;;;6274885;22;20004;-83
2023/08/06 07:49:24;;;;;;;3.15;2.03;;;;;;;;;;6274750;22;19999;-82
2023/08/06 07:51:51;;;;;;;2.67;1.80;;;;;;;;;;6284058;22;20086;-81
2023/08/06 07:54:17;;;;;;;4.38;1.67;;;;;;;;;;6275523;22;20046;-82
2023/08/06 07:56:42;;;;;;;3.22;2.13;;;;;;;;;;6247340;22;20389;-82
2023/08/06 07:59:08;;;;;;;1.90;1.55;;;;;;;;;;6275266;22;20034;-82
2023/08/06 08:01:33;;;;;;;4.93;1.98;;;;;;;;;;6247640;22;20044;-82
2023/08/06 08:03:59;;;;;;;2.88;1.90;;;;;;;;;;6275363;22;20026;-82
2023/08/06 08:06:24;;;;;;;4.30;2.35;;;;;;;;;;6275317;22;20076;-82
2023/08/06 08:08:50;;;;;;;5.88;2.67;;;;;;;;;;6274970;22;20362;-82
2023/08/06 08:11:16;;;;;;;3.05;2.00;;;;;;;;;;6223482;22;20446;-83
2023/08/06 08:13:41;;;;;;;2.78;1.90;;;;;;;;;;6251169;22;20379;-80
2023/08/06 08:16:07;;;;;;;2.40;2.20;;;;;;;;;;6281356;22;20008;-83
2023/08/06 08:18:32;;;;;;;6.70;2.40;;;;;;;;;;6275500;22;20014;-82
2023/08/06 08:20:58;;;;;;;3.67;2.00;;;;;;;;;;6250470;22;19999;-83
2023/08/06 08:23:23;;;;;;;4.30;1.98;;;;;;;;;;6275763;22;20011;-82
2023/08/06 08:25:49;;;;;;;2.55;2.25;;;;;;;;;;6274776;22;20022;-82
2023/08/06 08:28:14;;;;;;;2.13;1.92;;;;;;;;;;6275206;22;20015;-82
2023/08/06 08:30:41;;;;;;;2.53;2.13;;;;;;;;;;6275146;22;20007;-82
2023/08/06 08:33:07;;;;;;;4.03;2.20;;;;;;;;;;6248079;22;20000;-81
2023/08/06 08:35:33;;;;;;;3.97;2.22;;;;;;;;;;6274997;22;20000;-81
2023/08/06 08:37:58;;;;;;;2.40;2.00;;;;;;;;;;6282266;22;20011;-83
2023/08/06 08:40:29;;;;;;;4.15;1.95;;;;;;;;;;6248370;22;20006;-81
2023/08/06 08:42:55;;;;;;;5.28;2.53;;;;;;;;;;6198923;22;20015;-82
2023/08/06 08:45:20;;;;;;;6.18;2.38;;;;;;;;;;6274800;22;20457;-81
2023/08/06 08:47:47;;;;;;;6.45;2.83;;;;;;;;;;6274744;22;20435;-82
2023/08/06 08:50:14;;;;;;;3.80;2.83;;;;;;;;;;6248340;22;20038;-81
2023/08/06 08:52:42;;;;;;;4.07;2.40;;;;;;;;;;6274605;22;20014;-81
2023/08/06 08:55:08;;;;;;;2.90;2.35;;;;;;;;;;6274493;22;20053;-81
2023/08/06 08:57:33;;;;;;;5.55;2.33;;;;;;;;;;6247590;22;20385;-81
2023/08/06 08:59:59;;;;;;;4.43;3.00;;;;;;;;;;6251440;22;20003;-82
2023/08/06 09:02:25;;;;;;;3.30;2.70;;;;;;;;;;6277096;22;20003;-82
2023/08/06 09:04:50;;;;;;;6.50;2.72;;;;;;;;;;6248324;22;20085;-82
2023/08/06 09:07:18;;;;;;;6.00;3.08;;;;;;;;;;6222241;22;20000;-83
2023/08/06 09:09:43;;;;;;;2.60;2.40;;;;;;;;;;6247559;22;20022;-81
2023/08/06 09:12:12;;;;;;;4.05;2.78;;;;;;;;;;6247429;22;20000;-80
2023/08/06 09:14:37;;;;;;;4.22;2.90;;;;;;;;;;6223987;22;20004;-81
2023/08/06 09:17:04;;;;;;;4.32;2.70;;;;;;;;;;6248941;22;20015;-82
2023/08/06 09:19:29;;;;;;;4.60;2.70;;;;;;;;;;6276898;22;20083;-81
2023/08/06 09:21:55;;;;;;;5.95;3.10;;;;;;;;;;6276595;22;20450;-82
2023/08/06 09:24:22;;;;;;;4.93;2.78;;;;;;;;;;6258053;22;20010;-80
2023/08/06 09:26:47;;;;;;;5.22;2.72;;;;;;;;;;6278055;22;20007;-80
2023/08/06 09:29:13;;;;;;;8.70;3.72;;;;;;;;;;6276132;22;20443;-80
2023/08/06 09:31:52;;;;;;;6.13;3.00;;;;;;;;;;6224376;22;20003;-81
2023/08/06 09:34:22;;;;;;;3.40;2.92;;;;;;;;;;6251697;22;20027;-81
2023/08/06 09:36:50;;;;;;;4.43;3.05;;;;;;;;;;6224172;22;20007;-80
2023/08/06 09:39:16;;;;;;;4.15;3.13;;;;;;;;;;6224150;22;20050;-82
2023/08/06 09:41:42;;;;;;;3.35;3.05;;;;;;;;;;6249074;22;20084;-83
2023/08/06 09:44:18;;;;;;;5.32;3.38;;;;;;;;;;6276395;22;20427;-80
2023/08/06 09:46:57;;;;;;;8.50;3.60;;;;;;;;;;6255941;22;19995;-81
2023/08/06 09:49:25;;;;;;;5.85;3.20;;;;;;;;;;6255289;22;20010;-80
2023/08/06 09:51:53;;;;;;;4.53;3.08;;;;;;;;;;6276186;22;20053;-80
2023/08/06 09:54:19;;;;;;;6.50;3.53;;;;;;;;;;6225618;22;20006;-81
2023/08/06 09:56:44;;;;;;;4.93;3.88;;;;;;;;;;6249043;22;20074;-80
2023/08/06 09:59:11;;;;;;;5.38;4.00;;;;;;;;;;6249622;22;20007;-81
2023/08/06 10:01:36;;;;;;;8.85;4.70;;;;;;;;;;6275795;22;20439;-80
2023/08/06 10:04:03;;;;;;;8.15;4.63;;;;;;;;;;6275989;22;20057;-84
2023/08/06 10:06:28;;;;;;;7.38;4.50;;;;;;;;;;6276111;22;20008;-81
2023/08/06 10:08:54;;;;;;;5.75;5.10;;;;;;;;;;6248895;22;20088;-80
2023/08/06 10:11:24;;;;;;;10.13;5.55;;;;;;;;;;6253464;22;20003;-83
2023/08/06 10:13:50;;;;;;;6.72;5.80;;;;;;;;;;6254290;22;20004;-80
2023/08/06 10:16:15;;;;;;;9.20;5.80;;;;;;;;;;6249817;22;20447;-81
2023/08/06 10:18:41;;;;;;;12.88;5.97;;;;;;;;;;6248876;22;20092;-80
2023/08/06 10:21:09;;;;;;;11.52;7.20;;;;;;;;;;6248855;22;20008;-83
2023/08/06 10:23:38;;;;;;;8.38;7.03;;;;;;;;;;6197996;22;19996;-83
2023/08/06 10:26:03;;;;;;;9.93;6.60;;;;;;;;;;6248876;22;20008;-83
2023/08/06 10:28:37;;;;;;;8.63;7.10;;;;;;;;;;6249106;22;20384;-82
2023/08/06 10:31:04;;;;;;;11.82;7.65;;;;;;;;;;6276055;22;20004;-82
2023/08/06 10:33:45;;;;;;;8.65;6.95;;;;;;;;;;6278717;22;20004;-80
2023/08/06 10:36:11;;;;;;;10.13;7.50;;;;;;;;;;6225845;22;20067;-81
2023/08/06 10:38:44;;;;;;;11.30;8.00;;;;;;;;;;6250055;22;20057;-81
2023/08/06 10:41:09;;;;;;;13.07;9.02;;;;;;;;;;6275859;22;20004;-81
2023/08/06 10:43:37;;;;;;;13.80;8.63;;;;;;;;;;6223034;22;20000;-80
2023/08/06 10:46:06;;;;;;;12.45;8.75;;;;;;;;;;6223835;22;20144;-81
2023/08/06 10:48:36;;;;;;;13.20;9.50;;;;;;;;;;6224913;22;19999;-81
2023/08/06 10:51:02;;;;;;;15.73;9.57;;;;;;;;;;6248103;22;20405;-83
2023/08/06 10:53:27;;;;;;;14.07;9.50;;;;;;;;;;6223445;22;20007;-80
2023/08/06 10:55:52;;;;;;;13.07;10.07;;;;;;;;;;6249363;22;20016;-83
2023/08/06 10:58:18;;;;;;;13.73;9.90;;;;;;;;;;6261621;22;20031;-81
2023/08/06 11:00:43;;;;;;;21.33;9.82;;;;;;;;;;6249597;22;19999;-83
2023/08/06 11:03:09;;;;;;;16.10;10.77;;;;;;;;;;6275682;22;20004;-82
2023/08/06 11:05:35;;;;;;;14.85;10.85;;;;;;;;;;6222950;22;20027;-82
2023/08/06 11:08:01;;;;;;;15.77;11.43;;;;;;;;;;6248847;22;20008;-82
2023/08/06 11:10:26;;;;;;;19.92;12.45;;;;;;;;;;6248565;22;20455;-82
2023/08/06 11:12:51;;;;;;;17.52;11.52;;;;;;;;;;6223135;22;20359;-82
2023/08/06 11:15:17;;;;;;;17.55;11.15;;;;;;;;;;6223001;22;20004;-81
2023/08/06 11:17:42;;;;;;;16.35;10.95;;;;;;;;;;6275485;22;20008;-80
2023/08/06 11:20:08;;;;;;;22.00;11.68;;;;;;;;;;6276277;22;19999;-83
2023/08/06 11:22:35;;;;;;;23.02;11.75;;;;;;;;;;6251569;22;20011;-82
2023/08/06 11:25:00;;;;;;;16.48;10.75;;;;;;;;;;6224232;22;20082;-82
2023/08/06 11:27:26;;;;;;;16.77;12.40;;;;;;;;;;6275203;22;20011;-82
2023/08/06 11:29:52;;;;;;;15.55;10.70;;;;;;;;;;6248567;22;20004;-82
2023/08/06 11:32:17;;;;;;;18.40;11.45;;;;;;;;;;6275084;22;20363;-82
2023/08/06 11:34:43;;;;;;;16.30;10.55;;;;;;;;;;6275006;22;20475;-81
2023/08/06 11:37:09;;;;;;;15.45;10.85;;;;;;;;;;6247838;22;20008;-81
2023/08/06 11:39:36;;;;;;;22.13;11.25;;;;;;;;;;6248200;22;19996;-82
2023/08/06 11:42:08;;;;;;;18.67;10.05;;;;;;;;;;6248398;22;19999;-81
2023/08/06 11:44:36;;;;;;;15.98;10.90;;;;;;;;;;6233567;22;20000;-82
2023/08/06 11:47:04;;;;;;;21.13;12.15;;;;;;;;;;6276069;22;20000;-82
2023/08/06 11:49:44;;;;;;;19.77;11.98;;;;;;;;;;6275138;22;20053;-81
2023/08/06 11:52:23;;;;;;;20.20;12.18;;;;;;;;;;6274853;22;20014;-82
2023/08/06 11:55:12;;;;;;;22.65;12.98;;;;;;;;;;6275242;22;20018;-82
2023/08/06 11:57:39;;;;;;;21.75;12.57;;;;;;;;;;6249259;22;20004;-83
2023/08/06 12:00:09;;;;;;;22.95;13.38;;;;;;;;;;6248246;22;19999;-81
2023/08/06 12:02:36;;;;;;;24.05;12.98;;;;;;;;;;6274748;22;20707;-82
2023/08/06 12:05:07;;;;;;;20.73;12.70;;;;;;;;;;6222508;22;20003;-82
2023/08/06 12:07:32;;;;;;;22.52;13.55;;;;;;;;;;6251845;22;20000;-81
2023/08/06 12:09:58;;;;;;;20.88;13.07;;;;;;;;;;6276372;22;20000;-81
2023/08/06 12:12:24;;;;;;;22.65;13.90;;;;;;;;;;6275103;22;20004;-83
2023/08/06 12:14:49;;;;;;;25.13;14.15;;;;;;;;;;6275485;22;19999;-83
2023/08/06 12:17:15;;;;;;;22.50;14.00;;;;;;;;;;6247666;22;20008;-83
2023/08/06 12:19:40;;;;;;;21.77;14.52;;;;;;;;;;6274839;22;20060;-81
2023/08/06 12:22:06;;;;;;;24.10;14.57;;;;;;;;;;6274864;22;20466;-82
2023/08/06 12:24:31;;;;;;;22.17;14.07;;;;;;;;;;6274816;22;20004;-82
2023/08/06 12:27:02;;;;;;;21.10;14.82;;;;;;;;;;6248284;22;20000;-83
2023/08/06 12:29:28;;;;;;;22.52;15.02;;;;;;;;;;6250403;22;20011;-82
2023/08/06 12:31:53;;;;;;;24.50;15.02;;;;;;;;;;6254788;22;20000;-82
2023/08/06 12:34:19;;;;;;;21.83;15.55;;;;;;;;;;6275343;22;20516;-83
2023/08/06 12:36:44;;;;;;;22.10;15.50;;;;;;;;;;6276584;22;20062;-81
2023/08/06 12:39:10;;;;;;;27.17;16.27;;;;;;;;;;6250683;22;20439;-81
2023/08/06 12:41:35;;;;;;;21.50;15.25;;;;;;;;;;6252517;22;20335;-82
2023/08/06 12:44:01;;;;;;;21.70;14.70;;;;;;;;;;6286212;22;20000;-82
2023/08/06 12:46:26;;;;;;;21.83;14.35;;;;;;;;;;6302387;22;20027;-83
2023/08/06 12:48:52;;;;;;;20.70;13.40;;;;;;;;;;6302027;22;20008;-82
2023/08/06 12:51:17;;;;;;;17.95;12.75;;;;;;;;;;6301410;22;20090;-81
2023/08/06 12:53:42;;;;;;;19.80;13.07;;;;;;;;;;6255921;22;20010;-81
2023/08/06 12:56:08;;;;;;;19.33;13.98;;;;;;;;;;6257344;22;20003;-82
2023/08/06 12:58:33;;;;;;;24.20;14.13;;;;;;;;;;6277185;22;20004;-81
2023/08/06 13:00:59;;;;;;;21.30;14.35;;;;;;;;;;6277480;22;19996;-81
2023/08/06 13:03:24;;;;;;;22.70;14.88;;;;;;;;;;6276940;22;20438;-82
2023/08/06 13:05:50;;;;;;;24.13;14.57;;;;;;;;;;6249428;22;20000;-80
2023/08/06 13:08:15;;;;;;;24.27;15.38;;;;;;;;;;6277256;22;20100;-81
2023/08/06 13:10:40;;;;;;;21.38;14.77;;;;;;;;;;6249846;22;20516;-82
2023/08/06 13:13:06;;;;;;;20.38;14.30;;;;;;;;;;6276753;22;20025;-82
2023/08/06 13:15:31;;;;;;;19.30;14.00;;;;;;;;;;6277093;22;20004;-81
2023/08/06 13:17:57;;;;;;;23.02;15.02;;;;;;;;;;6280202;22;20014;-83
2023/08/06 13:20:22;;;;;;;20.52;14.38;;;;;;;;;;6249480;22;20134;-82
2023/08/06 13:22:50;;;;;;;22.10;15.07;;;;;;;;;;6277170;22;20416;-81
2023/08/06 13:25:16;;;;;;;18.85;14.18;;;;;;;;;;6276361;22;20379;-81
2023/08/06 13:27:44;;;;;;;22.00;15.52;;;;;;;;;;6250006;22;20014;-81
2023/08/06 13:30:09;;;;;;;27.38;16.50;;;;;;;;;;6249596;22;20053;-81
2023/08/06 13:32:36;;;;;;;29.15;15.80;;;;;;;;;;6276034;22;20008;-81
2023/08/06 13:35:03;;;;;;;23.08;15.95;;;;;;;;;;6249959;22;20011;-81
2023/08/06 13:37:28;;;;;;;23.83;15.90;;;;;;;;;;6276621;22;20003;-81
2023/08/06 13:39:54;;;;;;;24.75;15.60;;;;;;;;;;6281025;22;20630;-81
2023/08/06 13:42:19;;;;;;;24.95;15.63;;;;;;;;;;6288910;22;20405;-81
2023/08/06 13:44:45;;;;;;;30.88;16.70;;;;;;;;;;6276031;22;20198;-82
2023/08/06 13:47:10;;;;;;;24.92;16.30;;;;;;;;;;6276353;22;20477;-81
2023/08/06 13:49:35;;;;;;;24.90;15.85;;;;;;;;;;6276529;22;20000;-79
2023/08/06 13:52:01;;;;;;;29.00;17.10;;;;;;;;;;6276452;22;20004;-81
2023/08/06 13:54:26;;;;;;;26.75;16.17;;;;;;;;;;6276609;22;20419;-83
2023/08/06 13:56:53;;;;;;;26.25;16.25;;;;;;;;;;6249391;22;20415;-81
2023/08/06 13:59:19;;;;;;;24.20;16.63;;;;;;;;;;6276705;22;20057;-81
2023/08/06 14:01:45;;;;;;;28.85;18.05;;;;;;;;;;6262388;22;20022;-82
2023/08/06 14:04:11;;;;;;;28.15;18.27;;;;;;;;;;6281013;22;20451;-81
2023/08/06 14:06:37;;;;;;;30.50;18.25;;;;;;;;;;6251846;22;20048;-82
2023/08/06 14:09:02;;;;;;;32.92;18.10;;;;;;;;;;6249442;22;20418;-80
2023/08/06 14:11:28;;;;;;;32.28;18.40;;;;;;;;;;6248767;22;20031;-81
2023/08/06 14:13:53;;;;;;;32.45;19.63;;;;;;;;;;6275948;22;20042;-82
2023/08/06 14:16:19;;;;;;;37.42;20.00;;;;;;;;;;6223612;22;20027;-81
2023/08/06 14:18:44;;;;;;;33.38;19.95;;;;;;;;;;6276528;22;20004;-81
2023/08/06 14:23:53;;;;;;;32.60;20.05;;;;;;;;;;6275664;22;20015;-82
2023/08/06 14:26:19;;;;;;;34.25;21.73;;;;;;;;;;6277113;22;19996;-81
2023/08/06 14:28:45;;;;;;;40.38;22.30;;;;;;;;;;6282194;22;20007;-82
2023/08/06 14:31:11;;;;;;;40.05;23.23;;;;;;;;;;6275750;22;20442;-81
2023/08/06 14:33:36;;;;;;;47.95;26.60;;;;;;;;;;6275623;22;20331;-80